sensor_id;sensor_type;location;lat;lon;timestamp;pressure;altitude;pressure_sealevel;temperature;humidity
30875;BME280;17581;43.222;27.924;2023-07-30T00:00:33;100455.19;;;21.87;98.82
30875;BME280;17581;43.222;27.924;2023-07-30T00:02:59;100440.34;;;21.75;99.17
30875;BME280;17581;43.222;27.924;2023-07-30T00:05:25;100430.66;;;21.72;99.47
30875;BME280;17581;43.222;27.924;2023-07-30T00:07:50;100453.97;;;21.89;98.88
30875;BME280;17581;43.222;27.924;2023-07-30T00:10:16;100437.00;;;21.73;99.38
30875;BME280;17581;43.222;27.924;2023-07-30T00:12:42;100433.63;;;21.70;99.29
30875;BME280;17581;43.222;27.924;2023-07-30T00:15:07;100401.09;;;21.54;99.46
30875;BME280;17581;43.222;27.924;2023-07-30T00:17:33;100418.88;;;21.71;99.84
30875;BME280;17581;43.222;27.924;2023-07-30T00:19:59;100388.03;;;21.56;99.18
30875;BME280;17581;43.222;27.924;2023-07-30T00:22:24;100427.38;;;21.83;99.07
30875;BME280;17581;43.222;27.924;2023-07-30T00:24:49;100404.94;;;21.66;99.26
30875;BME280;17581;43.222;27.924;2023-07-30T00:27:15;100388.03;;;21.56;99.31
30875;BME280;17581;43.222;27.924;2023-07-30T00:29:41;100407.97;;;21.78;98.10
30875;BME280;17581;43.222;27.924;2023-07-30T00:32:07;100404.78;;;21.75;97.80
30875;BME280;17581;43.222;27.924;2023-07-30T00:34:32;100433.03;;;21.82;98.37
30875;BME280;17581;43.222;27.924;2023-07-30T00:36:58;100408.72;;;21.65;98.97
30875;BME280;17581;43.222;27.924;2023-07-30T00:39:23;100409.16;;;21.69;98.84
30875;BME280;17581;43.222;27.924;2023-07-30T00:41:49;100416.97;;;21.72;99.35
30875;BME280;17581;43.222;27.924;2023-07-30T00:44:15;100429.03;;;21.84;98.61
30875;BME280;17581;43.222;27.924;2023-07-30T00:46:41;100418.72;;;21.80;98.46
30875;BME280;17581;43.222;27.924;2023-07-30T00:49:06;100429.00;;;21.78;98.25
30875;BME280;17581;43.222;27.924;2023-07-30T00:51:33;100432.44;;;21.86;98.70
30875;BME280;17581;43.222;27.924;2023-07-30T00:53:59;100436.63;;;21.82;99.07
30875;BME280;17581;43.222;27.924;2023-07-30T00:56:26;100429.66;;;21.80;99.21
30875;BME280;17581;43.222;27.924;2023-07-30T00:58:52;100407.88;;;21.65;98.69
30875;BME280;17581;43.222;27.924;2023-07-30T01:01:18;100379.78;;;21.43;99.02
30875;BME280;17581;43.222;27.924;2023-07-30T01:03:44;100407.47;;;21.68;98.40
30875;BME280;17581;43.222;27.924;2023-07-30T01:06:10;100434.47;;;21.78;98.60
30875;BME280;17581;43.222;27.924;2023-07-30T01:08:35;100418.22;;;21.69;98.66
30875;BME280;17581;43.222;27.924;2023-07-30T01:11:02;100426.66;;;21.75;98.09
30875;BME280;17581;43.222;27.924;2023-07-30T01:13:30;100401.53;;;21.58;98.71
30875;BME280;17581;43.222;27.924;2023-07-30T01:15:57;100407.91;;;21.71;98.19
30875;BME280;17581;43.222;27.924;2023-07-30T01:18:23;100413.66;;;21.77;97.81
30875;BME280;17581;43.222;27.924;2023-07-30T01:20:52;100412.97;;;21.75;97.42
30875;BME280;17581;43.222;27.924;2023-07-30T01:23:18;100425.41;;;21.70;97.86
30875;BME280;17581;43.222;27.924;2023-07-30T01:25:44;100416.31;;;21.63;98.05
30875;BME280;17581;43.222;27.924;2023-07-30T01:28:12;100408.50;;;21.60;98.47
30875;BME280;17581;43.222;27.924;2023-07-30T01:30:42;100423.72;;;21.69;98.76
30875;BME280;17581;43.222;27.924;2023-07-30T01:33:11;100397.72;;;21.59;98.54
30875;BME280;17581;43.222;27.924;2023-07-30T01:35:37;100402.16;;;21.60;98.66
30875;BME280;17581;43.222;27.924;2023-07-30T01:38:03;100401.31;;;21.59;98.80
30875;BME280;17581;43.222;27.924;2023-07-30T01:40:31;100427.75;;;21.74;98.76
30875;BME280;17581;43.222;27.924;2023-07-30T01:42:57;100415.91;;;21.66;99.01
30875;BME280;17581;43.222;27.924;2023-07-30T01:45:23;100392.47;;;21.57;98.90
30875;BME280;17581;43.222;27.924;2023-07-30T01:47:48;100395.88;;;21.66;98.39
30875;BME280;17581;43.222;27.924;2023-07-30T01:50:14;100355.94;;;21.37;98.03
30875;BME280;17581;43.222;27.924;2023-07-30T01:52:39;100417.59;;;21.67;98.11
30875;BME280;17581;43.222;27.924;2023-07-30T01:55:05;100380.63;;;21.50;98.34
30875;BME280;17581;43.222;27.924;2023-07-30T01:57:30;100386.56;;;21.54;98.35
30875;BME280;17581;43.222;27.924;2023-07-30T01:59:56;100417.81;;;21.73;98.41
30875;BME280;17581;43.222;27.924;2023-07-30T02:02:21;100412.53;;;21.64;97.94
30875;BME280;17581;43.222;27.924;2023-07-30T02:04:47;100430.63;;;21.65;98.19
30875;BME280;17581;43.222;27.924;2023-07-30T02:07:12;100364.97;;;21.31;98.67
30875;BME280;17581;43.222;27.924;2023-07-30T02:09:38;100370.56;;;21.23;98.83
30875;BME280;17581;43.222;27.924;2023-07-30T02:12:04;100420.47;;;21.59;99.34
30875;BME280;17581;43.222;27.924;2023-07-30T02:14:29;100393.47;;;21.50;99.71
30875;BME280;17581;43.222;27.924;2023-07-30T02:16:55;100364.25;;;21.23;98.79
30875;BME280;17581;43.222;27.924;2023-07-30T02:19:20;100400.06;;;21.55;98.21
30875;BME280;17581;43.222;27.924;2023-07-30T02:21:46;100411.41;;;21.52;97.67
30875;BME280;17581;43.222;27.924;2023-07-30T02:24:11;100393.84;;;21.40;97.95
30875;BME280;17581;43.222;27.924;2023-07-30T02:26:38;100392.16;;;21.39;97.97
30875;BME280;17581;43.222;27.924;2023-07-30T02:29:04;100372.72;;;21.28;98.02
30875;BME280;17581;43.222;27.924;2023-07-30T02:31:29;100376.94;;;21.30;97.49
30875;BME280;17581;43.222;27.924;2023-07-30T02:33:56;100411.13;;;21.47;98.15
30875;BME280;17581;43.222;27.924;2023-07-30T02:36:21;100364.47;;;21.21;97.86
30875;BME280;17581;43.222;27.924;2023-07-30T02:38:47;100350.28;;;21.11;97.45
30875;BME280;17581;43.222;27.924;2023-07-30T02:41:12;100362.53;;;21.15;97.37
30875;BME280;17581;43.222;27.924;2023-07-30T02:43:38;100438.94;;;21.51;97.60
30875;BME280;17581;43.222;27.924;2023-07-30T02:46:03;100351.22;;;20.97;98.17
30875;BME280;17581;43.222;27.924;2023-07-30T02:48:29;100417.19;;;21.36;98.16
30875;BME280;17581;43.222;27.924;2023-07-30T02:50:54;100420.75;;;21.37;98.13
30875;BME280;17581;43.222;27.924;2023-07-30T02:53:19;100411.81;;;21.22;98.43
30875;BME280;17581;43.222;27.924;2023-07-30T02:55:45;100375.81;;;20.97;98.49
30875;BME280;17581;43.222;27.924;2023-07-30T02:58:10;100420.47;;;21.25;99.27
30875;BME280;17581;43.222;27.924;2023-07-30T03:00:36;100439.06;;;21.36;99.04
30875;BME280;17581;43.222;27.924;2023-07-30T03:03:02;100404.19;;;21.17;98.90
30875;BME280;17581;43.222;27.924;2023-07-30T03:05:28;100406.75;;;21.19;98.98
30875;BME280;17581;43.222;27.924;2023-07-30T03:07:54;100358.31;;;20.91;98.97
30875;BME280;17581;43.222;27.924;2023-07-30T03:10:19;100439.25;;;21.35;98.90
30875;BME280;17581;43.222;27.924;2023-07-30T03:12:45;100385.56;;;21.06;98.80
30875;BME280;17581;43.222;27.924;2023-07-30T03:15:10;100415.13;;;21.17;99.64
30875;BME280;17581;43.222;27.924;2023-07-30T03:17:35;100432.50;;;21.31;100.00
30875;BME280;17581;43.222;27.924;2023-07-30T03:20:01;100441.75;;;21.30;99.21
30875;BME280;17581;43.222;27.924;2023-07-30T03:22:27;100389.28;;;20.98;99.08
30875;BME280;17581;43.222;27.924;2023-07-30T03:24:52;100407.97;;;21.16;98.78
30875;BME280;17581;43.222;27.924;2023-07-30T03:27:18;100399.97;;;21.14;98.85
30875;BME280;17581;43.222;27.924;2023-07-30T03:29:43;100409.09;;;21.22;99.18
30875;BME280;17581;43.222;27.924;2023-07-30T03:32:08;100437.19;;;21.37;98.34
30875;BME280;17581;43.222;27.924;2023-07-30T03:34:34;100431.72;;;21.37;97.96
30875;BME280;17581;43.222;27.924;2023-07-30T03:36:59;100393.88;;;21.12;98.07
30875;BME280;17581;43.222;27.924;2023-07-30T03:39:28;100383.88;;;21.05;97.70
30875;BME280;17581;43.222;27.924;2023-07-30T03:41:53;100448.97;;;21.37;97.80
30875;BME280;17581;43.222;27.924;2023-07-30T03:44:19;100447.72;;;21.40;98.02
30875;BME280;17581;43.222;27.924;2023-07-30T03:46:45;100418.59;;;21.32;98.07
30875;BME280;17581;43.222;27.924;2023-07-30T03:49:11;100410.56;;;21.24;98.35
30875;BME280;17581;43.222;27.924;2023-07-30T03:51:36;100425.88;;;21.46;98.47
30875;BME280;17581;43.222;27.924;2023-07-30T03:54:04;100439.41;;;21.54;98.39
30875;BME280;17581;43.222;27.924;2023-07-30T03:56:29;100428.63;;;21.46;98.31
30875;BME280;17581;43.222;27.924;2023-07-30T03:58:55;100337.13;;;21.00;98.34
30875;BME280;17581;43.222;27.924;2023-07-30T04:01:21;100399.06;;;21.35;98.29
30875;BME280;17581;43.222;27.924;2023-07-30T04:03:46;100392.56;;;21.36;98.46
30875;BME280;17581;43.222;27.924;2023-07-30T04:06:12;100391.13;;;21.40;98.45
30875;BME280;17581;43.222;27.924;2023-07-30T04:08:37;100364.28;;;21.29;98.60
30875;BME280;17581;43.222;27.924;2023-07-30T04:11:03;100448.22;;;21.84;98.53
30875;BME280;17581;43.222;27.924;2023-07-30T04:13:28;100409.38;;;21.67;98.44
30875;BME280;17581;43.222;27.924;2023-07-30T04:15:54;100425.47;;;21.84;98.53
30875;BME280;17581;43.222;27.924;2023-07-30T04:18:19;100407.09;;;21.78;99.03
30875;BME280;17581;43.222;27.924;2023-07-30T04:20:45;100431.03;;;21.97;99.15
30875;BME280;17581;43.222;27.924;2023-07-30T04:23:10;100403.84;;;21.89;98.65
30875;BME280;17581;43.222;27.924;2023-07-30T04:25:36;100435.38;;;22.19;98.30
30875;BME280;17581;43.222;27.924;2023-07-30T04:28:01;100454.19;;;22.35;97.21
30875;BME280;17581;43.222;27.924;2023-07-30T04:30:27;100371.25;;;22.07;95.04
30875;BME280;17581;43.222;27.924;2023-07-30T04:32:52;100422.16;;;22.42;94.60
30875;BME280;17581;43.222;27.924;2023-07-30T04:35:18;100447.09;;;22.60;94.80
30875;BME280;17581;43.222;27.924;2023-07-30T04:37:43;100411.22;;;22.49;94.69
30875;BME280;17581;43.222;27.924;2023-07-30T04:40:09;100432.75;;;22.58;94.40
30875;BME280;17581;43.222;27.924;2023-07-30T04:42:35;100437.88;;;22.74;92.95
30875;BME280;17581;43.222;27.924;2023-07-30T04:45:01;100407.44;;;22.63;90.56
30875;BME280;17581;43.222;27.924;2023-07-30T04:47:27;100429.25;;;22.91;89.27
30875;BME280;17581;43.222;27.924;2023-07-30T04:49:53;100448.47;;;23.04;89.24
30875;BME280;17581;43.222;27.924;2023-07-30T04:52:21;100409.63;;;22.94;87.93
30875;BME280;17581;43.222;27.924;2023-07-30T04:54:47;100426.28;;;23.12;85.68
30875;BME280;17581;43.222;27.924;2023-07-30T04:57:12;100427.34;;;23.24;82.09
30875;BME280;17581;43.222;27.924;2023-07-30T04:59:38;100447.25;;;23.39;79.51
30875;BME280;17581;43.222;27.924;2023-07-30T05:02:03;100436.25;;;23.39;78.49
30875;BME280;17581;43.222;27.924;2023-07-30T05:04:29;100406.25;;;23.24;78.77
30875;BME280;17581;43.222;27.924;2023-07-30T05:06:54;100456.72;;;23.63;78.47
30875;BME280;17581;43.222;27.924;2023-07-30T05:09:20;100443.41;;;23.60;78.16
30875;BME280;17581;43.222;27.924;2023-07-30T05:11:45;100439.19;;;23.57;76.33
30875;BME280;17581;43.222;27.924;2023-07-30T05:14:11;100470.63;;;23.81;75.91
30875;BME280;17581;43.222;27.924;2023-07-30T05:16:36;100450.78;;;23.72;75.96
30875;BME280;17581;43.222;27.924;2023-07-30T05:19:04;100427.34;;;23.63;76.10
30875;BME280;17581;43.222;27.924;2023-07-30T05:21:30;100472.50;;;23.94;77.70
30875;BME280;17581;43.222;27.924;2023-07-30T05:24:10;100417.84;;;23.59;77.16
30875;BME280;17581;43.222;27.924;2023-07-30T05:27:01;100463.84;;;23.90;76.04
30875;BME280;17581;43.222;27.924;2023-07-30T05:29:27;100456.44;;;23.91;75.77
30875;BME280;17581;43.222;27.924;2023-07-30T05:31:53;100446.94;;;23.87;75.67
30875;BME280;17581;43.222;27.924;2023-07-30T05:34:18;100413.16;;;23.73;75.93
30875;BME280;17581;43.222;27.924;2023-07-30T05:36:44;100392.28;;;23.65;76.68
30875;BME280;17581;43.222;27.924;2023-07-30T05:39:10;100423.06;;;23.87;76.33
30875;BME280;17581;43.222;27.924;2023-07-30T05:41:35;100440.41;;;23.88;74.32
30875;BME280;17581;43.222;27.924;2023-07-30T05:44:01;100393.75;;;23.61;74.09
30875;BME280;17581;43.222;27.924;2023-07-30T05:46:26;100398.81;;;23.64;73.54
30875;BME280;17581;43.222;27.924;2023-07-30T05:48:52;100439.97;;;23.91;74.34
30875;BME280;17581;43.222;27.924;2023-07-30T05:51:18;100434.91;;;23.88;75.27
30875;BME280;17581;43.222;27.924;2023-07-30T05:53:43;100402.38;;;23.78;74.30
30875;BME280;17581;43.222;27.924;2023-07-30T05:56:09;100394.56;;;23.81;74.10
30875;BME280;17581;43.222;27.924;2023-07-30T05:58:38;100460.16;;;24.22;73.83
30875;BME280;17581;43.222;27.924;2023-07-30T06:01:03;100460.16;;;24.22;73.43
30875;BME280;17581;43.222;27.924;2023-07-30T06:03:29;100386.94;;;23.83;72.91
30875;BME280;17581;43.222;27.924;2023-07-30T06:05:54;100487.56;;;24.42;74.01
30875;BME280;17581;43.222;27.924;2023-07-30T06:08:19;100468.78;;;24.39;74.55
30875;BME280;17581;43.222;27.924;2023-07-30T06:10:45;100497.00;;;24.59;74.03
30875;BME280;17581;43.222;27.924;2023-07-30T06:13:12;100452.53;;;24.31;73.26
30875;BME280;17581;43.222;27.924;2023-07-30T06:15:37;100475.13;;;24.40;73.64
30875;BME280;17581;43.222;27.924;2023-07-30T06:18:03;100480.38;;;24.41;73.25
30875;BME280;17581;43.222;27.924;2023-07-30T06:20:29;100498.13;;;24.45;73.45
30875;BME280;17581;43.222;27.924;2023-07-30T06:22:55;100470.28;;;24.28;73.09
30875;BME280;17581;43.222;27.924;2023-07-30T06:25:20;100486.53;;;24.43;73.30
30875;BME280;17581;43.222;27.924;2023-07-30T06:27:46;100469.81;;;24.38;72.46
30875;BME280;17581;43.222;27.924;2023-07-30T06:30:12;100469.41;;;24.34;72.64
30875;BME280;17581;43.222;27.924;2023-07-30T06:32:37;100502.94;;;24.56;72.57
30875;BME280;17581;43.222;27.924;2023-07-30T06:35:03;100489.19;;;24.56;72.30
30875;BME280;17581;43.222;27.924;2023-07-30T06:37:28;100488.34;;;24.56;71.69
30875;BME280;17581;43.222;27.924;2023-07-30T06:39:54;100487.53;;;24.55;71.99
30875;BME280;17581;43.222;27.924;2023-07-30T06:42:19;100473.41;;;24.45;71.45
30875;BME280;17581;43.222;27.924;2023-07-30T06:44:45;100496.81;;;24.54;70.33
30875;BME280;17581;43.222;27.924;2023-07-30T06:47:10;100481.63;;;24.52;71.02
30875;BME280;17581;43.222;27.924;2023-07-30T06:49:36;100489.16;;;24.63;71.20
30875;BME280;17581;43.222;27.924;2023-07-30T06:52:02;100477.31;;;24.62;71.47
30875;BME280;17581;43.222;27.924;2023-07-30T06:54:29;100470.16;;;24.61;71.53
30875;BME280;17581;43.222;27.924;2023-07-30T06:56:54;100403.06;;;24.31;71.85
30875;BME280;17581;43.222;27.924;2023-07-30T06:59:20;100483.59;;;24.82;71.22
30875;BME280;17581;43.222;27.924;2023-07-30T07:01:45;100481.91;;;24.81;70.66
30875;BME280;17581;43.222;27.924;2023-07-30T07:04:11;100477.41;;;24.80;70.13
30875;BME280;17581;43.222;27.924;2023-07-30T07:06:36;100471.06;;;24.86;70.46
30875;BME280;17581;43.222;27.924;2023-07-30T07:09:02;100470.91;;;24.81;69.90
30875;BME280;17581;43.222;27.924;2023-07-30T07:11:28;100475.09;;;24.84;70.37
30875;BME280;17581;43.222;27.924;2023-07-30T07:13:53;100468.31;;;24.86;70.17
30875;BME280;17581;43.222;27.924;2023-07-30T07:16:19;100476.41;;;24.81;69.63
30875;BME280;17581;43.222;27.924;2023-07-30T07:18:44;100456.97;;;24.70;69.81
30875;BME280;17581;43.222;27.924;2023-07-30T07:21:10;100455.06;;;24.70;69.73
30875;BME280;17581;43.222;27.924;2023-07-30T07:23:35;100479.28;;;24.93;69.87
30875;BME280;17581;43.222;27.924;2023-07-30T07:26:01;100471.75;;;24.82;69.16
30875;BME280;17581;43.222;27.924;2023-07-30T07:28:26;100482.22;;;24.98;69.91
30875;BME280;17581;43.222;27.924;2023-07-30T07:30:52;100484.97;;;24.98;69.54
30875;BME280;17581;43.222;27.924;2023-07-30T07:33:17;100485.34;;;25.02;69.73
30875;BME280;17581;43.222;27.924;2023-07-30T07:35:43;100403.78;;;24.51;70.30
30875;BME280;17581;43.222;27.924;2023-07-30T07:38:08;100456.09;;;24.82;70.21
30875;BME280;17581;43.222;27.924;2023-07-30T07:40:37;100470.53;;;25.03;70.65
30875;BME280;17581;43.222;27.924;2023-07-30T07:43:07;100476.66;;;25.05;70.71
30875;BME280;17581;43.222;27.924;2023-07-30T07:45:32;100489.06;;;25.14;70.82
30875;BME280;17581;43.222;27.924;2023-07-30T07:47:58;100472.84;;;25.06;69.74
30875;BME280;17581;43.222;27.924;2023-07-30T07:50:23;100460.22;;;24.98;70.29
30875;BME280;17581;43.222;27.924;2023-07-30T07:52:49;100479.47;;;25.23;70.60
30875;BME280;17581;43.222;27.924;2023-07-30T07:55:14;100481.78;;;25.26;70.25
30875;BME280;17581;43.222;27.924;2023-07-30T07:57:40;100472.47;;;25.27;70.24
30875;BME280;17581;43.222;27.924;2023-07-30T08:00:06;100464.81;;;25.29;70.25
30875;BME280;17581;43.222;27.924;2023-07-30T08:02:32;100460.84;;;25.25;70.34
30875;BME280;17581;43.222;27.924;2023-07-30T08:04:57;100472.97;;;25.42;70.30
30875;BME280;17581;43.222;27.924;2023-07-30T08:07:23;100470.84;;;25.44;69.98
30875;BME280;17581;43.222;27.924;2023-07-30T08:09:48;100477.59;;;25.48;69.67
30875;BME280;17581;43.222;27.924;2023-07-30T08:12:14;100467.91;;;25.39;70.24
30875;BME280;17581;43.222;27.924;2023-07-30T08:14:39;100466.56;;;25.48;70.87
30875;BME280;17581;43.222;27.924;2023-07-30T08:17:05;100475.91;;;25.47;69.83
30875;BME280;17581;43.222;27.924;2023-07-30T08:19:30;100477.41;;;25.50;69.29
30875;BME280;17581;43.222;27.924;2023-07-30T08:21:58;100479.66;;;25.59;70.76
30875;BME280;17581;43.222;27.924;2023-07-30T08:24:24;100482.56;;;25.64;70.13
30875;BME280;17581;43.222;27.924;2023-07-30T08:26:49;100462.88;;;25.61;70.42
30875;BME280;17581;43.222;27.924;2023-07-30T08:29:15;100463.47;;;25.63;69.89
30875;BME280;17581;43.222;27.924;2023-07-30T08:31:41;100462.22;;;25.65;70.22
30875;BME280;17581;43.222;27.924;2023-07-30T08:34:07;100464.34;;;25.63;70.92
30875;BME280;17581;43.222;27.924;2023-07-30T08:36:32;100458.97;;;25.50;70.85
30875;BME280;17581;43.222;27.924;2023-07-30T08:38:58;100459.91;;;25.62;72.48
30875;BME280;17581;43.222;27.924;2023-07-30T08:41:24;100464.28;;;25.70;71.88
30875;BME280;17581;43.222;27.924;2023-07-30T08:43:49;100453.38;;;25.57;72.26
30875;BME280;17581;43.222;27.924;2023-07-30T08:46:17;100455.47;;;25.61;72.75
30875;BME280;17581;43.222;27.924;2023-07-30T08:48:42;100461.75;;;25.68;72.06
30875;BME280;17581;43.222;27.924;2023-07-30T08:51:08;100431.44;;;25.50;73.23
30875;BME280;17581;43.222;27.924;2023-07-30T08:53:34;100457.31;;;25.67;73.43
30875;BME280;17581;43.222;27.924;2023-07-30T08:56:00;100462.69;;;25.80;73.81
30875;BME280;17581;43.222;27.924;2023-07-30T08:58:27;100470.25;;;25.85;74.21
30875;BME280;17581;43.222;27.924;2023-07-30T09:00:55;100468.50;;;25.90;75.25
30875;BME280;17581;43.222;27.924;2023-07-30T09:03:23;100454.56;;;25.85;75.18
30875;BME280;17581;43.222;27.924;2023-07-30T09:05:50;100455.50;;;25.97;75.77
30875;BME280;17581;43.222;27.924;2023-07-30T09:08:15;100455.19;;;26.06;76.10
30875;BME280;17581;43.222;27.924;2023-07-30T09:10:42;100462.53;;;26.12;75.90
30875;BME280;17581;43.222;27.924;2023-07-30T09:13:07;100436.53;;;26.08;75.97
30875;BME280;17581;43.222;27.924;2023-07-30T09:15:35;100460.41;;;26.14;76.23
30875;BME280;17581;43.222;27.924;2023-07-30T09:18:02;100450.44;;;26.13;75.67
30875;BME280;17581;43.222;27.924;2023-07-30T09:20:36;100448.94;;;26.17;76.48
30875;BME280;17581;43.222;27.924;2023-07-30T09:23:02;100420.72;;;26.15;76.08
30875;BME280;17581;43.222;27.924;2023-07-30T09:25:28;100444.00;;;26.37;75.35
30875;BME280;17581;43.222;27.924;2023-07-30T09:27:53;100439.72;;;26.41;75.07
30875;BME280;17581;43.222;27.924;2023-07-30T09:30:23;100439.66;;;26.47;74.99
30875;BME280;17581;43.222;27.924;2023-07-30T09:32:55;100440.03;;;26.51;74.60
30875;BME280;17581;43.222;27.924;2023-07-30T09:35:21;100429.41;;;26.18;75.05
30875;BME280;17581;43.222;27.924;2023-07-30T09:37:50;100411.00;;;26.12;75.84
30875;BME280;17581;43.222;27.924;2023-07-30T09:40:16;100442.13;;;26.19;76.38
30875;BME280;17581;43.222;27.924;2023-07-30T09:42:48;100438.66;;;26.24;76.49
30875;BME280;17581;43.222;27.924;2023-07-30T09:45:19;100441.13;;;26.32;76.59
30875;BME280;17581;43.222;27.924;2023-07-30T09:47:49;100431.16;;;26.31;75.42
30875;BME280;17581;43.222;27.924;2023-07-30T09:50:15;100437.91;;;26.35;76.54
30875;BME280;17581;43.222;27.924;2023-07-30T09:52:41;100428.22;;;26.44;76.21
30875;BME280;17581;43.222;27.924;2023-07-30T09:55:08;100407.56;;;26.35;75.97
30875;BME280;17581;43.222;27.924;2023-07-30T09:57:33;100441.50;;;26.65;74.41
30875;BME280;17581;43.222;27.924;2023-07-30T10:00:00;100441.97;;;26.62;74.44
30875;BME280;17581;43.222;27.924;2023-07-30T10:02:28;100408.75;;;26.57;74.99
30875;BME280;17581;43.222;27.924;2023-07-30T10:04:57;100423.06;;;26.77;74.47
30875;BME280;17581;43.222;27.924;2023-07-30T10:07:24;100400.25;;;26.70;73.93
30875;BME280;17581;43.222;27.924;2023-07-30T10:09:54;100407.41;;;26.89;73.49
30875;BME280;17581;43.222;27.924;2023-07-30T10:12:32;100434.94;;;27.08;73.70
30875;BME280;17581;43.222;27.924;2023-07-30T10:15:01;100429.69;;;27.18;73.46
30875;BME280;17581;43.222;27.924;2023-07-30T10:17:26;100417.59;;;27.30;72.50
30875;BME280;17581;43.222;27.924;2023-07-30T10:19:54;100417.09;;;27.33;71.77
30875;BME280;17581;43.222;27.924;2023-07-30T10:22:22;100416.00;;;27.23;71.17
30875;BME280;17581;43.222;27.924;2023-07-30T10:24:59;100427.63;;;27.25;72.10
30875;BME280;17581;43.222;27.924;2023-07-30T10:27:36;100417.22;;;27.38;71.39
30875;BME280;17581;43.222;27.924;2023-07-30T10:30:14;100394.88;;;27.17;71.94
30875;BME280;17581;43.222;27.924;2023-07-30T10:38:13;100418.97;;;26.98;73.99
30875;BME280;17581;43.222;27.924;2023-07-30T10:40:40;100421.50;;;26.99;74.55
30875;BME280;17581;43.222;27.924;2023-07-30T10:43:17;100412.03;;;27.19;73.42
30875;BME280;17581;43.222;27.924;2023-07-30T10:45:49;100390.41;;;27.16;72.47
30875;BME280;17581;43.222;27.924;2023-07-30T10:48:16;100412.06;;;27.30;72.66
30875;BME280;17581;43.222;27.924;2023-07-30T10:50:42;100391.88;;;27.18;71.70
30875;BME280;17581;43.222;27.924;2023-07-30T10:53:08;100397.63;;;27.28;71.18
30875;BME280;17581;43.222;27.924;2023-07-30T10:55:34;100423.59;;;27.27;71.56
30875;BME280;17581;43.222;27.924;2023-07-30T10:57:59;100387.06;;;27.14;70.62
30875;BME280;17581;43.222;27.924;2023-07-30T11:00:25;100409.16;;;27.25;71.25
30875;BME280;17581;43.222;27.924;2023-07-30T11:02:54;100410.25;;;27.36;71.84
30875;BME280;17581;43.222;27.924;2023-07-30T11:05:20;100422.72;;;27.27;72.32
30875;BME280;17581;43.222;27.924;2023-07-30T11:07:52;100405.31;;;27.26;70.89
30875;BME280;17581;43.222;27.924;2023-07-30T11:10:17;100393.19;;;27.27;71.35
30875;BME280;17581;43.222;27.924;2023-07-30T11:12:43;100381.91;;;27.29;68.31
30875;BME280;17581;43.222;27.924;2023-07-30T11:15:09;100407.50;;;27.47;68.66
30875;BME280;17581;43.222;27.924;2023-07-30T11:17:35;100402.09;;;27.52;67.94
30875;BME280;17581;43.222;27.924;2023-07-30T11:20:01;100396.59;;;27.64;67.81
30875;BME280;17581;43.222;27.924;2023-07-30T11:22:31;100391.75;;;27.71;64.40
30875;BME280;17581;43.222;27.924;2023-07-30T11:24:56;100385.63;;;27.69;64.62
30875;BME280;17581;43.222;27.924;2023-07-30T11:27:22;100391.53;;;27.61;64.22
30875;BME280;17581;43.222;27.924;2023-07-30T11:29:57;100384.56;;;27.47;63.57
30875;BME280;17581;43.222;27.924;2023-07-30T11:32:23;100383.13;;;27.56;64.32
30875;BME280;17581;43.222;27.924;2023-07-30T11:34:52;100383.59;;;27.76;64.35
30875;BME280;17581;43.222;27.924;2023-07-30T11:37:20;100383.66;;;27.93;63.20
30875;BME280;17581;43.222;27.924;2023-07-30T11:39:46;100382.00;;;27.92;61.32
30875;BME280;17581;43.222;27.924;2023-07-30T11:42:12;100382.94;;;27.86;62.29
30875;BME280;17581;43.222;27.924;2023-07-30T11:44:39;100382.94;;;27.97;62.08
30875;BME280;17581;43.222;27.924;2023-07-30T11:47:05;100373.91;;;28.14;61.39
30875;BME280;17581;43.222;27.924;2023-07-30T11:49:30;100353.50;;;27.91;59.93
30875;BME280;17581;43.222;27.924;2023-07-30T11:52:06;100378.00;;;28.11;59.79
30875;BME280;17581;43.222;27.924;2023-07-30T11:54:33;100374.66;;;27.97;59.91
30875;BME280;17581;43.222;27.924;2023-07-30T11:56:58;100373.06;;;28.01;60.45
30875;BME280;17581;43.222;27.924;2023-07-30T11:59:24;100371.63;;;28.10;60.45
30875;BME280;17581;43.222;27.924;2023-07-30T12:01:50;100375.97;;;28.35;59.25
30875;BME280;17581;43.222;27.924;2023-07-30T12:04:15;100371.53;;;28.05;58.29
30875;BME280;17581;43.222;27.924;2023-07-30T12:06:45;100377.13;;;28.22;58.82
30875;BME280;17581;43.222;27.924;2023-07-30T12:09:18;100369.91;;;28.21;58.36
30875;BME280;17581;43.222;27.924;2023-07-30T12:11:57;100362.16;;;28.06;59.49
30875;BME280;17581;43.222;27.924;2023-07-30T12:14:27;100366.94;;;28.11;59.70
30875;BME280;17581;43.222;27.924;2023-07-30T12:16:58;100364.91;;;28.35;58.73
30875;BME280;17581;43.222;27.924;2023-07-30T12:19:23;100351.69;;;28.37;58.03
30875;BME280;17581;43.222;27.924;2023-07-30T12:21:49;100344.81;;;28.39;57.40
30875;BME280;17581;43.222;27.924;2023-07-30T12:24:14;100331.47;;;28.08;57.91
30875;BME280;17581;43.222;27.924;2023-07-30T12:26:40;100351.41;;;28.22;58.02
30875;BME280;17581;43.222;27.924;2023-07-30T12:29:07;100345.09;;;28.26;58.61
30875;BME280;17581;43.222;27.924;2023-07-30T12:31:32;100333.06;;;28.32;58.64
30875;BME280;17581;43.222;27.924;2023-07-30T12:33:58;100333.25;;;28.42;58.29
30875;BME280;17581;43.222;27.924;2023-07-30T12:36:23;100349.78;;;28.54;57.87
30875;BME280;17581;43.222;27.924;2023-07-30T12:38:49;100333.06;;;28.32;58.21
30875;BME280;17581;43.222;27.924;2023-07-30T12:41:17;100330.53;;;28.31;58.74